sensor_id;sensor_type;location;lat;lon;timestamp;pressure;altitude;pressure_sealevel;temperature;humidity
78483;BME280;67772;50.158;8.658;2023-03-01T00:00:11;101611.78;;;-0.47;65.14
78483;BME280;67772;50.158;8.658;2023-03-01T00:02:37;101599.63;;;-0.48;64.82
78483;BME280;67772;50.158;8.658;2023-03-01T00:05:02;101602.97;;;-0.56;65.17
78483;BME280;67772;50.158;8.658;2023-03-01T00:07:28;101603.00;;;-0.65;65.49
78483;BME280;67772;50.158;8.658;2023-03-01T00:09:53;101600.91;;;-0.62;66.19
78483;BME280;67772;50.158;8.658;2023-03-01T00:12:19;101602.56;;;-0.70;65.86
78483;BME280;67772;50.158;8.658;2023-03-01T00:14:44;101601.47;;;-0.68;65.62
78483;BME280;67772;50.158;8.658;2023-03-01T00:17:10;101611.13;;;-0.68;65.19
78483;BME280;67772;50.158;8.658;2023-03-01T00:19:35;101611.53;;;-0.63;65.42
78483;BME280;67772;50.158;8.658;2023-03-01T00:22:00;101601.75;;;-0.61;65.51
78483;BME280;67772;50.158;8.658;2023-03-01T00:24:26;101600.06;;;-0.62;65.39
78483;BME280;67772;50.158;8.658;2023-03-01T00:26:54;101599.25;;;-0.53;65.11
78483;BME280;67772;50.158;8.658;2023-03-01T00:29:22;101597.19;;;-0.59;65.14
78483;BME280;67772;50.158;8.658;2023-03-01T00:31:47;101598.59;;;-0.65;65.54
78483;BME280;67772;50.158;8.658;2023-03-01T00:34:12;101590.31;;;-0.70;65.48
78483;BME280;67772;50.158;8.658;2023-03-01T00:36:38;101596.91;;;-0.66;65.63
78483;BME280;67772;50.158;8.658;2023-03-01T00:39:07;101589.44;;;-0.51;65.27
78483;BME280;67772;50.158;8.658;2023-03-01T00:41:33;101582.56;;;-0.62;65.06
78483;BME280;67772;50.158;8.658;2023-03-01T00:43:59;101581.31;;;-0.58;64.88
78483;BME280;67772;50.158;8.658;2023-03-01T00:46:26;101589.03;;;-0.56;65.10
78483;BME280;67772;50.158;8.658;2023-03-01T00:48:52;101577.59;;;-0.55;65.29
78483;BME280;67772;50.158;8.658;2023-03-01T00:51:20;101582.69;;;-0.54;65.11
78483;BME280;67772;50.158;8.658;2023-03-01T00:53:46;101574.97;;;-0.55;65.07
78483;BME280;67772;50.158;8.658;2023-03-01T00:56:13;101580.63;;;-0.60;65.58
78483;BME280;67772;50.158;8.658;2023-03-01T00:58:39;101582.88;;;-0.65;65.33
78483;BME280;67772;50.158;8.658;2023-03-01T01:01:16;101571.97;;;-0.70;65.77
78483;BME280;67772;50.158;8.658;2023-03-01T01:06:28;101570.72;;;-0.66;65.96
78483;BME280;67772;50.158;8.658;2023-03-01T01:08:54;101565.91;;;-0.70;65.70
78483;BME280;67772;50.158;8.658;2023-03-01T01:11:22;101563.00;;;-0.67;66.07
78483;BME280;67772;50.158;8.658;2023-03-01T01:13:48;101558.59;;;-0.67;65.63
78483;BME280;67772;50.158;8.658;2023-03-01T01:16:15;101556.25;;;-0.70;65.85
78483;BME280;67772;50.158;8.658;2023-03-01T01:18:41;101552.81;;;-0.70;66.13
78483;BME280;67772;50.158;8.658;2023-03-01T01:21:09;101543.44;;;-0.73;66.21
78483;BME280;67772;50.158;8.658;2023-03-01T01:23:35;101542.63;;;-0.73;66.34
78483;BME280;67772;50.158;8.658;2023-03-01T01:26:06;101543.72;;;-0.76;66.16
78483;BME280;67772;50.158;8.658;2023-03-01T01:28:32;101534.59;;;-0.62;65.93
78483;BME280;67772;50.158;8.658;2023-03-01T01:30:57;101522.72;;;-0.66;65.86
78483;BME280;67772;50.158;8.658;2023-03-01T01:33:22;101527.16;;;-0.67;66.01
78483;BME280;67772;50.158;8.658;2023-03-01T01:35:48;101526.03;;;-0.64;66.00
78483;BME280;67772;50.158;8.658;2023-03-01T01:38:13;101520.09;;;-0.57;65.37
78483;BME280;67772;50.158;8.658;2023-03-01T01:40:49;101518.81;;;-0.53;65.44
78483;BME280;67772;50.158;8.658;2023-03-01T01:43:24;101519.50;;;-0.51;65.64
78483;BME280;67772;50.158;8.658;2023-03-01T01:45:50;101519.38;;;-0.49;65.77
78483;BME280;67772;50.158;8.658;2023-03-01T01:48:20;101504.63;;;-0.50;65.36
78483;BME280;67772;50.158;8.658;2023-03-01T01:50:53;101517.19;;;-0.54;65.94
78483;BME280;67772;50.158;8.658;2023-03-01T01:53:20;101516.03;;;-0.42;65.72
78483;BME280;67772;50.158;8.658;2023-03-01T01:55:49;101523.78;;;-0.50;65.75
78483;BME280;67772;50.158;8.658;2023-03-01T01:58:19;101525.44;;;-0.49;65.47
78483;BME280;67772;50.158;8.658;2023-03-01T02:00:46;101529.88;;;-0.49;65.69
78483;BME280;67772;50.158;8.658;2023-03-01T02:03:14;101534.53;;;-0.53;65.83
78483;BME280;67772;50.158;8.658;2023-03-01T02:08:33;101532.63;;;-0.60;65.84
78483;BME280;67772;50.158;8.658;2023-03-01T02:11:00;101527.97;;;-0.57;66.16
78483;BME280;67772;50.158;8.658;2023-03-01T02:13:27;101525.63;;;-0.60;66.32
78483;BME280;67772;50.158;8.658;2023-03-01T02:15:52;101533.59;;;-0.52;66.08
78483;BME280;67772;50.158;8.658;2023-03-01T02:18:20;101523.75;;;-0.40;65.86
78483;BME280;67772;50.158;8.658;2023-03-01T02:23:20;101522.34;;;-0.35;65.38
78483;BME280;67772;50.158;8.658;2023-03-01T02:28:38;101502.53;;;-0.47;65.04
78483;BME280;67772;50.158;8.658;2023-03-01T02:31:09;101500.69;;;-0.37;65.08
78483;BME280;67772;50.158;8.658;2023-03-01T02:33:54;101503.03;;;-0.34;64.22
78483;BME280;67772;50.158;8.658;2023-03-01T02:36:23;101501.25;;;-0.43;65.07
78483;BME280;67772;50.158;8.658;2023-03-01T02:38:52;101495.34;;;-0.45;64.98
78483;BME280;67772;50.158;8.658;2023-03-01T02:41:19;101486.53;;;-0.44;64.86
78483;BME280;67772;50.158;8.658;2023-03-01T02:43:46;101487.78;;;-0.48;64.80
78483;BME280;67772;50.158;8.658;2023-03-01T02:46:30;101484.47;;;-0.50;65.07
78483;BME280;67772;50.158;8.658;2023-03-01T02:48:57;101484.75;;;-0.43;65.06
78483;BME280;67772;50.158;8.658;2023-03-01T02:54:21;101473.94;;;-0.40;64.55
78483;BME280;67772;50.158;8.658;2023-03-01T02:56:50;101466.09;;;-0.40;64.56
78483;BME280;67772;50.158;8.658;2023-03-01T02:59:19;101471.34;;;-0.40;64.23
78483;BME280;67772;50.158;8.658;2023-03-01T03:01:45;101471.84;;;-0.37;64.47
78483;BME280;67772;50.158;8.658;2023-03-01T03:04:15;101467.97;;;-0.33;64.55
78483;BME280;67772;50.158;8.658;2023-03-01T03:06:42;101467.38;;;-0.27;64.06
78483;BME280;67772;50.158;8.658;2023-03-01T03:09:08;101462.72;;;-0.33;64.09
78483;BME280;67772;50.158;8.658;2023-03-01T03:11:33;101456.22;;;-0.29;64.41
78483;BME280;67772;50.158;8.658;2023-03-01T03:13:58;101456.91;;;-0.27;64.12
78483;BME280;67772;50.158;8.658;2023-03-01T03:16:24;101453.97;;;-0.41;64.56
78483;BME280;67772;50.158;8.658;2023-03-01T03:18:49;101450.72;;;-0.26;64.09
78483;BME280;67772;50.158;8.658;2023-03-01T03:21:15;101449.63;;;-0.33;64.63
78483;BME280;67772;50.158;8.658;2023-03-01T03:23:41;101452.84;;;-0.39;64.62
78483;BME280;67772;50.158;8.658;2023-03-01T03:26:07;101447.22;;;-0.44;64.70
78483;BME280;67772;50.158;8.658;2023-03-01T03:28:33;101443.19;;;-0.38;64.68
78483;BME280;67772;50.158;8.658;2023-03-01T03:30:59;101451.47;;;-0.43;65.09
78483;BME280;67772;50.158;8.658;2023-03-01T03:33:32;101447.22;;;-0.44;64.84
78483;BME280;67772;50.158;8.658;2023-03-01T03:35:57;101442.94;;;-0.45;65.13
78483;BME280;67772;50.158;8.658;2023-03-01T03:38:23;101438.00;;;-0.48;65.27
78483;BME280;67772;50.158;8.658;2023-03-01T03:41:01;101426.44;;;-0.55;64.90
78483;BME280;67772;50.158;8.658;2023-03-01T03:43:27;101431.03;;;-0.66;65.25
78483;BME280;67772;50.158;8.658;2023-03-01T03:45:52;101431.44;;;-0.61;65.41
78483;BME280;67772;50.158;8.658;2023-03-01T03:48:19;101437.22;;;-0.58;64.59
78483;BME280;67772;50.158;8.658;2023-03-01T03:50:50;101423.75;;;-0.63;65.16
78483;BME280;67772;50.158;8.658;2023-03-01T03:53:16;101428.00;;;-0.62;65.47
78483;BME280;67772;50.158;8.658;2023-03-01T03:55:41;101431.88;;;-0.66;65.34
78483;BME280;67772;50.158;8.658;2023-03-01T03:58:08;101431.72;;;-0.64;65.71
78483;BME280;67772;50.158;8.658;2023-03-01T04:00:40;101425.09;;;-0.59;65.33
78483;BME280;67772;50.158;8.658;2023-03-01T04:03:06;101422.66;;;-0.70;65.76
78483;BME280;67772;50.158;8.658;2023-03-01T04:05:32;101426.75;;;-0.58;65.40
78483;BME280;67772;50.158;8.658;2023-03-01T04:07:58;101425.03;;;-0.49;64.63
78483;BME280;67772;50.158;8.658;2023-03-01T04:10:32;101429.25;;;-0.66;65.46
78483;BME280;67772;50.158;8.658;2023-03-01T04:12:58;101428.69;;;-0.60;65.37
78483;BME280;67772;50.158;8.658;2023-03-01T04:15:24;101435.84;;;-0.62;65.31
78483;BME280;67772;50.158;8.658;2023-03-01T04:17:51;101428.94;;;-0.53;64.92
78483;BME280;67772;50.158;8.658;2023-03-01T04:20:20;101443.63;;;-0.70;65.51
78483;BME280;67772;50.158;8.658;2023-03-01T04:25:22;101439.16;;;-0.60;65.30
78483;BME280;67772;50.158;8.658;2023-03-01T04:27:48;101433.03;;;-0.51;64.75
78483;BME280;67772;50.158;8.658;2023-03-01T04:30:14;101434.22;;;-0.63;65.04
78483;BME280;67772;50.158;8.658;2023-03-01T04:32:39;101419.47;;;-0.64;64.32
78483;BME280;67772;50.158;8.658;2023-03-01T04:35:04;101415.56;;;-0.60;64.88
78483;BME280;67772;50.158;8.658;2023-03-01T04:37:30;101414.94;;;-0.71;65.23
78483;BME280;67772;50.158;8.658;2023-03-01T04:39:55;101411.06;;;-0.67;65.10
78483;BME280;67772;50.158;8.658;2023-03-01T04:42:20;101416.22;;;-0.75;65.33
78483;BME280;67772;50.158;8.658;2023-03-01T04:44:46;101419.94;;;-0.78;65.51
78483;BME280;67772;50.158;8.658;2023-03-01T04:47:16;101417.19;;;-0.76;65.38
78483;BME280;67772;50.158;8.658;2023-03-01T04:49:42;101411.97;;;-0.86;65.88
78483;BME280;67772;50.158;8.658;2023-03-01T04:52:07;101417.09;;;-0.84;65.55
78483;BME280;67772;50.158;8.658;2023-03-01T04:54:34;101419.88;;;-0.96;66.01
78483;BME280;67772;50.158;8.658;2023-03-01T04:57:00;101423.31;;;-0.95;66.33
78483;BME280;67772;50.158;8.658;2023-03-01T04:59:26;101415.88;;;-1.00;66.52
78483;BME280;67772;50.158;8.658;2023-03-01T05:01:52;101422.25;;;-1.02;66.19
78483;BME280;67772;50.158;8.658;2023-03-01T05:04:20;101417.41;;;-0.97;66.42
78483;BME280;67772;50.158;8.658;2023-03-01T05:06:46;101423.47;;;-0.97;66.90
78483;BME280;67772;50.158;8.658;2023-03-01T05:09:11;101417.97;;;-1.03;66.63
78483;BME280;67772;50.158;8.658;2023-03-01T05:11:37;101420.31;;;-1.00;66.84
78483;BME280;67772;50.158;8.658;2023-03-01T05:14:03;101419.81;;;-0.86;66.23
78483;BME280;67772;50.158;8.658;2023-03-01T05:16:28;101412.56;;;-0.92;66.56
78483;BME280;67772;50.158;8.658;2023-03-01T05:18:55;101414.22;;;-0.91;66.79
78483;BME280;67772;50.158;8.658;2023-03-01T05:21:22;101410.59;;;-0.90;66.39
78483;BME280;67772;50.158;8.658;2023-03-01T05:23:47;101409.34;;;-0.86;66.14
78483;BME280;67772;50.158;8.658;2023-03-01T05:26:13;101415.53;;;-0.77;65.60
78483;BME280;67772;50.158;8.658;2023-03-01T05:28:38;101421.75;;;-0.88;66.10
78483;BME280;67772;50.158;8.658;2023-03-01T05:31:05;101418.72;;;-0.83;66.12
78483;BME280;67772;50.158;8.658;2023-03-01T05:33:35;101416.22;;;-0.75;65.59
78483;BME280;67772;50.158;8.658;2023-03-01T05:36:00;101415.72;;;-0.88;65.83
78483;BME280;67772;50.158;8.658;2023-03-01T05:38:26;101409.28;;;-0.94;66.09
78483;BME280;67772;50.158;8.658;2023-03-01T05:40:51;101419.41;;;-0.81;65.67
78483;BME280;67772;50.158;8.658;2023-03-01T05:43:17;101414.47;;;-0.84;66.09
78483;BME280;67772;50.158;8.658;2023-03-01T05:45:43;101411.97;;;-0.86;65.55
78483;BME280;67772;50.158;8.658;2023-03-01T05:48:11;101405.47;;;-0.82;65.97
78483;BME280;67772;50.158;8.658;2023-03-01T05:50:42;101406.63;;;-0.84;65.96
78483;BME280;67772;50.158;8.658;2023-03-01T05:53:13;101411.69;;;-0.83;65.48
78483;BME280;67772;50.158;8.658;2023-03-01T05:55:40;101406.63;;;-0.84;65.79
78483;BME280;67772;50.158;8.658;2023-03-01T05:58:10;101400.34;;;-0.74;65.83
78483;BME280;67772;50.158;8.658;2023-03-01T06:00:36;101400.34;;;-0.74;65.28
78483;BME280;67772;50.158;8.658;2023-03-01T06:03:01;101400.34;;;-0.74;65.43
78483;BME280;67772;50.158;8.658;2023-03-01T06:05:28;101413.34;;;-0.82;65.74
78483;BME280;67772;50.158;8.658;2023-03-01T06:07:53;101404.94;;;-0.85;66.02
78483;BME280;67772;50.158;8.658;2023-03-01T06:10:20;101415.31;;;-0.94;66.31
78483;BME280;67772;50.158;8.658;2023-03-01T06:12:46;101400.75;;;-0.96;66.45
78483;BME280;67772;50.158;8.658;2023-03-01T06:15:13;101404.41;;;-0.89;65.96
78483;BME280;67772;50.158;8.658;2023-03-01T06:17:40;101407.34;;;-0.92;66.24
78483;BME280;67772;50.158;8.658;2023-03-01T06:20:18;101418.44;;;-0.80;65.77
78483;BME280;67772;50.158;8.658;2023-03-01T06:22:45;101403.88;;;-0.93;66.07
78483;BME280;67772;50.158;8.658;2023-03-01T06:25:12;101410.03;;;-0.84;65.57
78483;BME280;67772;50.158;8.658;2023-03-01T06:27:37;101399.28;;;-0.81;65.71
78483;BME280;67772;50.158;8.658;2023-03-01T06:30:03;101403.41;;;-0.78;66.06
78483;BME280;67772;50.158;8.658;2023-03-01T06:32:29;101401.69;;;-0.70;65.66
78483;BME280;67772;50.158;8.658;2023-03-01T06:34:55;101398.34;;;-0.62;64.86
78483;BME280;67772;50.158;8.658;2023-03-01T06:37:20;101405.78;;;-0.58;65.26
78483;BME280;67772;50.158;8.658;2023-03-01T06:39:46;101408.66;;;-0.51;65.28
78483;BME280;67772;50.158;8.658;2023-03-01T06:42:11;101406.03;;;-0.51;65.36
78483;BME280;67772;50.158;8.658;2023-03-01T06:44:37;101392.34;;;-0.45;65.46
78483;BME280;67772;50.158;8.658;2023-03-01T06:47:03;101389.50;;;-0.34;64.58
78483;BME280;67772;50.158;8.658;2023-03-01T06:49:28;101395.41;;;-0.32;64.74
78483;BME280;67772;50.158;8.658;2023-03-01T06:51:53;101389.81;;;-0.20;64.36
78483;BME280;67772;50.158;8.658;2023-03-01T06:54:19;101382.91;;;-0.03;63.36
78483;BME280;67772;50.158;8.658;2023-03-01T06:56:47;101384.78;;;0.05;63.48
78483;BME280;67772;50.158;8.658;2023-03-01T06:59:13;101380.03;;;0.26;62.60
78483;BME280;67772;50.158;8.658;2023-03-01T07:01:38;101382.22;;;0.30;62.56
78483;BME280;67772;50.158;8.658;2023-03-01T07:04:04;101389.63;;;0.35;62.11
78483;BME280;67772;50.158;8.658;2023-03-01T07:06:29;101395.06;;;0.41;62.14
78483;BME280;67772;50.158;8.658;2023-03-01T07:08:54;101388.75;;;0.52;61.62
78483;BME280;67772;50.158;8.658;2023-03-01T07:11:20;101391.00;;;0.64;61.07
78483;BME280;67772;50.158;8.658;2023-03-01T07:13:45;101391.38;;;0.77;61.13
78483;BME280;67772;50.158;8.658;2023-03-01T07:16:10;101396.03;;;0.83;60.31
78483;BME280;67772;50.158;8.658;2023-03-01T07:18:36;101402.56;;;0.79;60.44
78483;BME280;67772;50.158;8.658;2023-03-01T07:21:05;101401.84;;;0.95;59.96
78483;BME280;67772;50.158;8.658;2023-03-01T07:23:31;101402.72;;;1.04;59.15
78483;BME280;67772;50.158;8.658;2023-03-01T07:25:56;101394.34;;;1.08;59.16
78483;BME280;67772;50.158;8.658;2023-03-01T07:28:23;101391.53;;;1.51;58.56
78483;BME280;67772;50.158;8.658;2023-03-01T07:30:48;101388.69;;;2.03;56.75
78483;BME280;67772;50.158;8.658;2023-03-01T07:33:13;101382.25;;;2.45;55.09
78483;BME280;67772;50.158;8.658;2023-03-01T07:35:39;101381.22;;;2.70;54.15
78483;BME280;67772;50.158;8.658;2023-03-01T07:38:04;101381.38;;;2.85;53.60
78483;BME280;67772;50.158;8.658;2023-03-01T07:40:29;101390.53;;;3.05;52.76
78483;BME280;67772;50.158;8.658;2023-03-01T07:42:58;101391.22;;;2.99;52.39
78483;BME280;67772;50.158;8.658;2023-03-01T07:45:24;101392.38;;;2.97;52.29
78483;BME280;67772;50.158;8.658;2023-03-01T07:47:51;101384.59;;;3.11;52.53
78483;BME280;67772;50.158;8.658;2023-03-01T07:50:16;101385.44;;;3.42;51.39
78483;BME280;67772;50.158;8.658;2023-03-01T07:52:44;101388.50;;;3.85;50.54
78483;BME280;67772;50.158;8.658;2023-03-01T07:55:09;101387.63;;;4.15;49.19
78483;BME280;67772;50.158;8.658;2023-03-01T07:57:35;101385.34;;;4.49;48.36
78483;BME280;67772;50.158;8.658;2023-03-01T08:00:00;101392.41;;;4.71;48.01
78483;BME280;67772;50.158;8.658;2023-03-01T08:02:25;101383.94;;;5.05;47.29
78483;BME280;67772;50.158;8.658;2023-03-01T08:04:51;101379.91;;;5.38;46.18
78483;BME280;67772;50.158;8.658;2023-03-01T08:07:16;101389.44;;;5.89;45.03
78483;BME280;67772;50.158;8.658;2023-03-01T08:09:41;101376.81;;;6.55;43.18
78483;BME280;67772;50.158;8.658;2023-03-01T08:12:06;101380.97;;;7.39;41.51
78483;BME280;67772;50.158;8.658;2023-03-01T08:14:32;101376.72;;;8.44;39.06
78483;BME280;67772;50.158;8.658;2023-03-01T08:16:58;101373.78;;;9.55;36.60
78483;BME280;67772;50.158;8.658;2023-03-01T08:19:23;101372.22;;;10.65;33.83
78483;BME280;67772;50.158;8.658;2023-03-01T08:21:49;101379.22;;;11.39;32.28
78483;BME280;67772;50.158;8.658;2023-03-01T08:24:14;101376.81;;;11.67;31.78
78483;BME280;67772;50.158;8.658;2023-03-01T08:26:40;101369.09;;;11.59;32.19
78483;BME280;67772;50.158;8.658;2023-03-01T08:29:05;101363.03;;;11.34;32.53
78483;BME280;67772;50.158;8.658;2023-03-01T08:31:34;101352.44;;;12.05;31.01
78483;BME280;67772;50.158;8.658;2023-03-01T08:34:06;101362.66;;;12.61;29.50
78483;BME280;67772;50.158;8.658;2023-03-01T08:36:36;101349.94;;;13.98;28.17
78483;BME280;67772;50.158;8.658;2023-03-01T08:39:02;101349.31;;;15.34;25.87
78483;BME280;67772;50.158;8.658;2023-03-01T08:41:28;101344.63;;;16.58;23.80
78483;BME280;67772;50.158;8.658;2023-03-01T08:43:54;101347.53;;;17.55;22.03
78483;BME280;67772;50.158;8.658;2023-03-01T08:46:36;101342.50;;;18.24;21.82
78483;BME280;67772;50.158;8.658;2023-03-01T08:49:06;101348.16;;;18.63;20.46
78483;BME280;67772;50.158;8.658;2023-03-01T08:51:32;101351.53;;;20.11;19.29
78483;BME280;67772;50.158;8.658;2023-03-01T08:54:02;101340.25;;;18.96;20.14
78483;BME280;67772;50.158;8.658;2023-03-01T08:56:28;101327.28;;;18.93;20.35
78483;BME280;67772;50.158;8.658;2023-03-01T08:58:54;101327.75;;;19.05;20.19
78483;BME280;67772;50.158;8.658;2023-03-01T09:01:19;101316.78;;;20.80;18.54
78483;BME280;67772;50.158;8.658;2023-03-01T09:03:44;101313.47;;;21.12;18.04
78483;BME280;67772;50.158;8.658;2023-03-01T09:06:10;101323.94;;;20.95;17.30
78483;BME280;67772;50.158;8.658;2023-03-01T09:08:38;101322.31;;;21.97;16.84
78483;BME280;67772;50.158;8.658;2023-03-01T09:11:06;101324.03;;;23.39;15.75
78483;BME280;67772;50.158;8.658;2023-03-01T09:13:32;101316.69;;;23.26;15.42
78483;BME280;67772;50.158;8.658;2023-03-01T09:16:00;101319.28;;;22.31;16.23
78483;BME280;67772;50.158;8.658;2023-03-01T09:18:26;101319.81;;;21.02;16.81
78483;BME280;67772;50.158;8.658;2023-03-01T09:20:51;101312.94;;;23.22;14.93
78483;BME280;67772;50.158;8.658;2023-03-01T09:23:20;101301.59;;;23.55;14.75
78483;BME280;67772;50.158;8.658;2023-03-01T09:25:45;101300.88;;;23.86;14.87
78483;BME280;67772;50.158;8.658;2023-03-01T09:28:10;101299.00;;;24.08;14.57
78483;BME280;67772;50.158;8.658;2023-03-01T09:30:36;101284.25;;;24.09;14.18
78483;BME280;67772;50.158;8.658;2023-03-01T09:33:01;101284.19;;;25.01;13.33
78483;BME280;67772;50.158;8.658;2023-03-01T09:35:27;101291.63;;;25.26;13.37
78483;BME280;67772;50.158;8.658;2023-03-01T09:37:53;101286.09;;;24.00;14.01
78483;BME280;67772;50.158;8.658;2023-03-01T09:40:21;101277.19;;;26.66;12.32
78483;BME280;67772;50.158;8.658;2023-03-01T09:43:11;101273.97;;;26.18;12.62
78483;BME280;67772;50.158;8.658;2023-03-01T09:45:43;101282.13;;;27.10;11.59
78483;BME280;67772;50.158;8.658;2023-03-01T09:48:16;101280.25;;;27.52;11.40
78483;BME280;67772;50.158;8.658;2023-03-01T09:50:43;101285.44;;;24.87;13.02
78483;BME280;67772;50.158;8.658;2023-03-01T09:53:17;101283.75;;;25.16;12.88
78483;BME280;67772;50.158;8.658;2023-03-01T09:59:17;101269.34;;;27.64;11.47
78483;BME280;67772;50.158;8.658;2023-03-01T10:01:52;101265.31;;;26.54;12.20
78483;BME280;67772;50.158;8.658;2023-03-01T10:04:28;101267.47;;;27.56;11.65
78483;BME280;67772;50.158;8.658;2023-03-01T10:09:37;101264.44;;;27.49;11.06
78483;BME280;67772;50.158;8.658;2023-03-01T10:12:09;101257.63;;;28.77;10.65
78483;BME280;67772;50.158;8.658;2023-03-01T10:14:48;101258.59;;;29.61;10.08
78483;BME280;67772;50.158;8.658;2023-03-01T10:17:39;101264.06;;;27.39;11.28
78483;BME280;67772;50.158;8.658;2023-03-01T10:22:47;101269.03;;;26.87;11.51
78483;BME280;67772;50.158;8.658;2023-03-01T10:25:47;101263.41;;;27.62;11.34
78483;BME280;67772;50.158;8.658;2023-03-01T10:31:02;101255.25;;;27.33;11.89
78483;BME280;67772;50.158;8.658;2023-03-01T10:33:32;101253.59;;;27.32;11.91
78483;BME280;67772;50.158;8.658;2023-03-01T10:36:00;101246.41;;;26.69;11.66
78483;BME280;67772;50.158;8.658;2023-03-01T10:38:30;101240.16;;;26.31;12.38
78483;BME280;67772;50.158;8.658;2023-03-01T10:41:04;101248.00;;;26.41;12.33
78483;BME280;67772;50.158;8.658;2023-03-01T10:43:56;101244.22;;;26.92;11.54
78483;BME280;67772;50.158;8.658;2023-03-01T10:46:28;101238.16;;;27.69;11.46
78483;BME280;67772;50.158;8.658;2023-03-01T10:49:20;101235.06;;;27.08;12.10
78483;BME280;67772;50.158;8.658;2023-03-01T10:51:51;101212.34;;;30.37;9.81
78483;BME280;67772;50.158;8.658;2023-03-01T10:54:20;101224.59;;;27.31;11.13
78483;BME280;67772;50.158;8.658;2023-03-01T10:56:51;101206.41;;;26.01;12.36
78483;BME280;67772;50.158;8.658;2023-03-01T10:59:33;101200.66;;;26.99;11.97
78483;BME280;67772;50.158;8.658;2023-03-01T11:02:14;101200.94;;;29.64;10.47
78483;BME280;67772;50.158;8.658;2023-03-01T11:04:39;101196.06;;;27.85;11.13
78483;BME280;67772;50.158;8.658;2023-03-01T11:07:05;101200.13;;;27.26;11.64
78483;BME280;67772;50.158;8.658;2023-03-01T11:09:32;101178.69;;;29.97;9.76
78483;BME280;67772;50.158;8.658;2023-03-01T11:12:05;101188.28;;;27.43;11.82
78483;BME280;67772;50.158;8.658;2023-03-01T11:14:46;101169.56;;;29.38;9.88
78483;BME280;67772;50.158;8.658;2023-03-01T11:17:18;101170.53;;;28.78;10.55
78483;BME280;67772;50.158;8.658;2023-03-01T11:20:14;101168.47;;;28.51;10.84
78483;BME280;67772;50.158;8.658;2023-03-01T11:22:47;101168.88;;;27.27;11.50
78483;BME280;67772;50.158;8.658;2023-03-01T11:25:15;101149.88;;;28.96;10.62
78483;BME280;67772;50.158;8.658;2023-03-01T11:27:45;101145.66;;;30.13;9.99
78483;BME280;67772;50.158;8.658;2023-03-01T11:30:22;101141.25;;;29.65;9.93
78483;BME280;67772;50.158;8.658;2023-03-01T11:33:12;101140.00;;;31.29;9.46
78483;BME280;67772;50.158;8.658;2023-03-01T11:35:42;101137.78;;;30.96;8.97
78483;BME280;67772;50.158;8.658;2023-03-01T11:38:24;101143.28;;;28.85;10.15
78483;BME280;67772;50.158;8.658;2023-03-01T11:43:49;101126.09;;;30.49;9.38
78483;BME280;67772;50.158;8.658;2023-03-01T11:48:46;101127.41;;;27.94;10.94
78483;BME280;67772;50.158;8.658;2023-03-01T11:51:34;101124.56;;;27.04;11.54
78483;BME280;67772;50.158;8.658;2023-03-01T11:54:17;101117.38;;;27.53;11.34
78483;BME280;67772;50.158;8.658;2023-03-01T11:56:48;101109.91;;;27.42;11.64
78483;BME280;67772;50.158;8.658;2023-03-01T12:08:20;101087.06;;;29.97;9.15
78483;BME280;67772;50.158;8.658;2023-03-01T12:11:20;101082.88;;;31.68;8.81
78483;BME280;67772;50.158;8.658;2023-03-01T12:16:49;101074.63;;;29.40;9.88
78483;BME280;67772;50.158;8.658;2023-03-01T12:22:21;101070.00;;;29.44;9.71
78483;BME280;67772;50.158;8.658;2023-03-01T12:38:49;101055.88;;;25.60;11.86
78483;BME280;67772;50.158;8.658;2023-03-01T12:46:53;101045.31;;;25.41;12.26
78483;BME280;67772;50.158;8.658;2023-03-01T12:49:29;101041.44;;;23.36;13.56
78483;BME280;67772;50.158;8.658;2023-03-01T12:54:55;101032.50;;;21.79;15.62
78483;BME280;67772;50.158;8.658;2023-03-01T13:00:03;101031.44;;;21.02;15.47
78483;BME280;67772;50.158;8.658;2023-03-01T13:02:58;101022.22;;;20.05;17.47
78483;BME280;67772;50.158;8.658;2023-03-01T13:08:31;101035.50;;;16.13;21.85
78483;BME280;67772;50.158;8.658;2023-03-01T13:11:03;101037.50;;;16.53;22.42
78483;BME280;67772;50.158;8.658;2023-03-01T13:13:29;101028.34;;;15.82;23.00
78483;BME280;67772;50.158;8.658;2023-03-01T13:15:56;101026.00;;;15.49;24.17
78483;BME280;67772;50.158;8.658;2023-03-01T13:21:01;101014.84;;;13.92;25.33
78483;BME280;67772;50.158;8.658;2023-03-01T13:23:33;101004.66;;;13.51;26.11
78483;BME280;67772;50.158;8.658;2023-03-01T13:26:15;101006.03;;;12.87;27.32
78483;BME280;67772;50.158;8.658;2023-03-01T13:33:48;100986.22;;;11.98;28.30
78483;BME280;67772;50.158;8.658;2023-03-01T13:44:25;100967.69;;;11.80;29.00
78483;BME280;67772;50.158;8.658;2023-03-01T13:47:01;100957.94;;;11.63;29.62
78483;BME280;67772;50.158;8.658;2023-03-01T13:49:33;100956.22;;;11.68;29.67
78483;BME280;67772;50.158;8.658;2023-03-01T13:52:01;100952.91;;;11.89;29.05
78483;BME280;67772;50.158;8.658;2023-03-01T13:54:30;100945.28;;;11.58;29.43
78483;BME280;67772;50.158;8.658;2023-03-01T13:56:58;100950.91;;;11.22;29.24
78483;BME280;67772;50.158;8.658;2023-03-01T13:59:24;100946.50;;;11.39;29.89
78483;BME280;67772;50.158;8.658;2023-03-01T14:01:57;100951.13;;;11.32;29.51
78483;BME280;67772;50.158;8.658;2023-03-01T14:06:48;100935.34;;;11.19;30.45
78483;BME280;67772;50.158;8.658;2023-03-01T14:09:25;100934.22;;;10.92;30.95
78483;BME280;67772;50.158;8.658;2023-03-01T14:20:37;100934.19;;;10.68;30.76
78483;BME280;67772;50.158;8.658;2023-03-01T14:22:58;100938.97;;;10.25;32.19
78483;BME280;67772;50.158;8.658;2023-03-01T14:25:26;100939.25;;;10.47;32.38
78483;BME280;67772;50.158;8.658;2023-03-01T14:30:27;100933.66;;;10.25;32.17
78483;BME280;67772;50.158;8.658;2023-03-01T14:32:58;100939.88;;;10.19;31.93
78483;BME280;67772;50.158;8.658;2023-03-01T14:35:27;100938.38;;;10.23;33.70
78483;BME280;67772;50.158;8.658;2023-03-01T14:37:53;100944.09;;;10.09;33.51
78483;BME280;67772;50.158;8.658;2023-03-01T14:40:30;100939.50;;;10.45;32.93
78483;BME280;67772;50.158;8.658;2023-03-01T14:42:58;100927.84;;;10.28;32.76
78483;BME280;67772;50.158;8.658;2023-03-01T14:45:26;100933.00;;;10.41;32.89